sensor_id;sensor_type;location;lat;lon;timestamp;temperature;humidity
38209;DHT22;24016;52.102;11.584;2023-11-19T00:00:26;4.30;99.90
38209;DHT22;24016;52.102;11.584;2023-11-19T00:02:52;4.30;99.90
38209;DHT22;24016;52.102;11.584;2023-11-19T00:05:18;4.20;99.90
38209;DHT22;24016;52.102;11.584;2023-11-19T00:07:44;4.20;99.90
38209;DHT22;24016;52.102;11.584;2023-11-19T00:10:11;4.30;99.90
38209;DHT22;24016;52.102;11.584;2023-11-19T00:12:38;4.30;99.90
38209;DHT22;24016;52.102;11.584;2023-11-19T00:15:05;4.30;99.90
38209;DHT22;24016;52.102;11.584;2023-11-19T00:17:31;4.30;99.90
38209;DHT22;24016;52.102;11.584;2023-11-19T00:19:57;4.30;99.90
38209;DHT22;24016;52.102;11.584;2023-11-19T00:22:22;4.30;99.90
38209;DHT22;24016;52.102;11.584;2023-11-19T00:24:48;4.20;99.90
38209;DHT22;24016;52.102;11.584;2023-11-19T00:27:14;4.20;99.90
38209;DHT22;24016;52.102;11.584;2023-11-19T00:29:40;4.20;99.90
38209;DHT22;24016;52.102;11.584;2023-11-19T00:32:05;4.20;99.90
38209;DHT22;24016;52.102;11.584;2023-11-19T00:34:33;4.20;99.90
38209;DHT22;24016;52.102;11.584;2023-11-19T00:36:58;4.20;99.90
38209;DHT22;24016;52.102;11.584;2023-11-19T00:39:24;4.20;99.90
38209;DHT22;24016;52.102;11.584;2023-11-19T00:41:49;4.20;99.90
38209;DHT22;24016;52.102;11.584;2023-11-19T00:44:15;4.20;99.90
38209;DHT22;24016;52.102;11.584;2023-11-19T00:46:40;4.20;99.90
38209;DHT22;24016;52.102;11.584;2023-11-19T00:49:06;4.20;99.90
38209;DHT22;24016;52.102;11.584;2023-11-19T00:51:32;4.20;99.90
38209;DHT22;24016;52.102;11.584;2023-11-19T00:53:58;4.20;99.90
38209;DHT22;24016;52.102;11.584;2023-11-19T00:56:24;4.20;99.90
38209;DHT22;24016;52.102;11.584;2023-11-19T00:58:50;4.20;99.90
38209;DHT22;24016;52.102;11.584;2023-11-19T01:01:15;4.20;99.90
38209;DHT22;24016;52.102;11.584;2023-11-19T01:03:41;4.20;99.90
38209;DHT22;24016;52.102;11.584;2023-11-19T01:06:07;4.20;99.90
38209;DHT22;24016;52.102;11.584;2023-11-19T01:08:33;4.20;99.90
38209;DHT22;24016;52.102;11.584;2023-11-19T01:11:01;4.20;99.90
38209;DHT22;24016;52.102;11.584;2023-11-19T01:13:27;4.20;99.90
38209;DHT22;24016;52.102;11.584;2023-11-19T01:15:53;4.20;99.90
38209;DHT22;24016;52.102;11.584;2023-11-19T01:18:18;4.20;99.90
38209;DHT22;24016;52.102;11.584;2023-11-19T01:20:44;4.20;99.90
38209;DHT22;24016;52.102;11.584;2023-11-19T01:23:10;4.20;99.90
38209;DHT22;24016;52.102;11.584;2023-11-19T01:25:35;4.20;99.90
38209;DHT22;24016;52.102;11.584;2023-11-19T01:28:02;4.20;99.90
38209;DHT22;24016;52.102;11.584;2023-11-19T01:30:28;4.20;99.90
38209;DHT22;24016;52.102;11.584;2023-11-19T01:32:53;4.20;99.90
38209;DHT22;24016;52.102;11.584;2023-11-19T01:35:19;4.20;99.90
38209;DHT22;24016;52.102;11.584;2023-11-19T01:37:44;4.20;99.90
38209;DHT22;24016;52.102;11.584;2023-11-19T01:40:10;4.20;99.90
38209;DHT22;24016;52.102;11.584;2023-11-19T01:42:37;4.20;99.90
38209;DHT22;24016;52.102;11.584;2023-11-19T01:45:04;4.20;99.90
38209;DHT22;24016;52.102;11.584;2023-11-19T01:47:33;4.20;99.90
38209;DHT22;24016;52.102;11.584;2023-11-19T01:50:01;4.30;99.90
38209;DHT22;24016;52.102;11.584;2023-11-19T01:52:27;4.30;99.90
38209;DHT22;24016;52.102;11.584;2023-11-19T01:54:53;4.20;99.90
38209;DHT22;24016;52.102;11.584;2023-11-19T01:57:21;4.30;99.90
38209;DHT22;24016;52.102;11.584;2023-11-19T01:59:49;4.30;99.90
38209;DHT22;24016;52.102;11.584;2023-11-19T02:02:16;4.30;99.90
38209;DHT22;24016;52.102;11.584;2023-11-19T02:04:49;4.30;99.90
38209;DHT22;24016;52.102;11.584;2023-11-19T02:07:15;4.30;99.90
38209;DHT22;24016;52.102;11.584;2023-11-19T02:09:43;4.30;99.90
38209;DHT22;24016;52.102;11.584;2023-11-19T02:12:09;4.30;99.90
38209;DHT22;24016;52.102;11.584;2023-11-19T02:14:37;4.30;99.90
38209;DHT22;24016;52.102;11.584;2023-11-19T02:17:03;4.30;99.90
38209;DHT22;24016;52.102;11.584;2023-11-19T02:19:29;4.40;99.90
38209;DHT22;24016;52.102;11.584;2023-11-19T02:21:54;4.40;99.90
38209;DHT22;24016;52.102;11.584;2023-11-19T02:24:22;4.40;99.90
38209;DHT22;24016;52.102;11.584;2023-11-19T02:27:08;4.40;99.90
38209;DHT22;24016;52.102;11.584;2023-11-19T02:29:36;4.40;99.90
38209;DHT22;24016;52.102;11.584;2023-11-19T02:32:02;4.40;99.90
38209;DHT22;24016;52.102;11.584;2023-11-19T02:34:28;4.40;99.90
38209;DHT22;24016;52.102;11.584;2023-11-19T02:36:58;4.40;99.90
38209;DHT22;24016;52.102;11.584;2023-11-19T02:39:23;4.40;99.90
38209;DHT22;24016;52.102;11.584;2023-11-19T02:41:52;4.50;99.90
38209;DHT22;24016;52.102;11.584;2023-11-19T02:44:18;4.50;99.90
38209;DHT22;24016;52.102;11.584;2023-11-19T02:46:44;4.50;99.90
38209;DHT22;24016;52.102;11.584;2023-11-19T02:49:10;4.50;99.90
38209;DHT22;24016;52.102;11.584;2023-11-19T02:51:46;4.50;99.90
38209;DHT22;24016;52.102;11.584;2023-11-19T02:54:12;4.50;99.90
38209;DHT22;24016;52.102;11.584;2023-11-19T02:56:42;4.50;99.90
38209;DHT22;24016;52.102;11.584;2023-11-19T02:59:08;4.50;99.90
38209;DHT22;24016;52.102;11.584;2023-11-19T03:01:43;4.50;99.90
38209;DHT22;24016;52.102;11.584;2023-11-19T03:04:14;4.50;99.90
38209;DHT22;24016;52.102;11.584;2023-11-19T03:06:42;4.50;99.90
38209;DHT22;24016;52.102;11.584;2023-11-19T03:09:07;4.50;99.90
38209;DHT22;24016;52.102;11.584;2023-11-19T03:11:36;4.50;99.90
38209;DHT22;24016;52.102;11.584;2023-11-19T03:14:01;4.60;99.90
38209;DHT22;24016;52.102;11.584;2023-11-19T03:16:28;4.60;99.90
38209;DHT22;24016;52.102;11.584;2023-11-19T03:18:53;4.60;99.90
38209;DHT22;24016;52.102;11.584;2023-11-19T03:21:19;4.70;99.90
38209;DHT22;24016;52.102;11.584;2023-11-19T03:23:45;4.70;99.90
38209;DHT22;24016;52.102;11.584;2023-11-19T03:26:11;4.70;99.90
38209;DHT22;24016;52.102;11.584;2023-11-19T03:28:37;4.70;99.90
38209;DHT22;24016;52.102;11.584;2023-11-19T03:31:05;4.80;99.90
38209;DHT22;24016;52.102;11.584;2023-11-19T03:33:33;4.80;99.90
38209;DHT22;24016;52.102;11.584;2023-11-19T03:35:59;4.80;99.90
38209;DHT22;24016;52.102;11.584;2023-11-19T03:38:25;4.90;99.90
38209;DHT22;24016;52.102;11.584;2023-11-19T03:40:50;4.90;99.90
38209;DHT22;24016;52.102;11.584;2023-11-19T03:43:16;4.90;99.90
38209;DHT22;24016;52.102;11.584;2023-11-19T03:45:42;5.00;99.90
38209;DHT22;24016;52.102;11.584;2023-11-19T03:48:07;5.00;99.90
38209;DHT22;24016;52.102;11.584;2023-11-19T03:50:33;5.00;99.90
38209;DHT22;24016;52.102;11.584;2023-11-19T03:52:58;5.00;99.90
38209;DHT22;24016;52.102;11.584;2023-11-19T03:55:24;5.00;99.90
38209;DHT22;24016;52.102;11.584;2023-11-19T03:57:50;5.00;99.90
38209;DHT22;24016;52.102;11.584;2023-11-19T04:00:15;5.00;99.90
38209;DHT22;24016;52.102;11.584;2023-11-19T04:02:41;5.00;99.90
38209;DHT22;24016;52.102;11.584;2023-11-19T04:05:07;5.00;99.90
38209;DHT22;24016;52.102;11.584;2023-11-19T04:07:33;5.00;99.90
38209;DHT22;24016;52.102;11.584;2023-11-19T04:09:59;5.00;99.90
38209;DHT22;24016;52.102;11.584;2023-11-19T04:12:24;5.10;99.90
38209;DHT22;24016;52.102;11.584;2023-11-19T04:14:50;5.10;99.90
38209;DHT22;24016;52.102;11.584;2023-11-19T04:17:15;5.10;99.90
38209;DHT22;24016;52.102;11.584;2023-11-19T04:19:41;5.10;99.90
38209;DHT22;24016;52.102;11.584;2023-11-19T04:22:09;5.10;99.90
38209;DHT22;24016;52.102;11.584;2023-11-19T04:24:36;5.20;99.90
38209;DHT22;24016;52.102;11.584;2023-11-19T04:27:01;5.30;99.90
38209;DHT22;24016;52.102;11.584;2023-11-19T04:29:27;5.40;99.90
38209;DHT22;24016;52.102;11.584;2023-11-19T04:31:53;5.40;99.90
38209;DHT22;24016;52.102;11.584;2023-11-19T04:34:18;5.40;99.90
38209;DHT22;24016;52.102;11.584;2023-11-19T04:36:44;5.50;99.90
38209;DHT22;24016;52.102;11.584;2023-11-19T04:39:09;5.50;99.90
38209;DHT22;24016;52.102;11.584;2023-11-19T04:41:49;5.60;99.90
38209;DHT22;24016;52.102;11.584;2023-11-19T04:44:16;5.50;99.90
38209;DHT22;24016;52.102;11.584;2023-11-19T04:46:42;5.60;99.90
38209;DHT22;24016;52.102;11.584;2023-11-19T04:49:11;5.50;99.90
38209;DHT22;24016;52.102;11.584;2023-11-19T04:51:44;5.60;99.90
38209;DHT22;24016;52.102;11.584;2023-11-19T04:54:10;5.60;99.90
38209;DHT22;24016;52.102;11.584;2023-11-19T04:56:36;5.60;99.90
38209;DHT22;24016;52.102;11.584;2023-11-19T04:59:05;5.60;99.90
38209;DHT22;24016;52.102;11.584;2023-11-19T05:01:32;5.70;99.90
38209;DHT22;24016;52.102;11.584;2023-11-19T05:03:58;5.70;99.90
38209;DHT22;24016;52.102;11.584;2023-11-19T05:06:31;5.80;99.90
38209;DHT22;24016;52.102;11.584;2023-11-19T05:09:00;5.90;99.90
38209;DHT22;24016;52.102;11.584;2023-11-19T05:11:35;6.00;99.90
38209;DHT22;24016;52.102;11.584;2023-11-19T05:14:02;6.00;99.90
38209;DHT22;24016;52.102;11.584;2023-11-19T05:16:29;6.10;99.90
38209;DHT22;24016;52.102;11.584;2023-11-19T05:18:55;6.10;99.90
38209;DHT22;24016;52.102;11.584;2023-11-19T05:21:20;6.10;99.90
38209;DHT22;24016;52.102;11.584;2023-11-19T05:23:46;6.20;99.90
38209;DHT22;24016;52.102;11.584;2023-11-19T05:26:18;6.20;99.90
38209;DHT22;24016;52.102;11.584;2023-11-19T05:28:44;6.30;99.90
38209;DHT22;24016;52.102;11.584;2023-11-19T05:31:09;6.40;99.90
38209;DHT22;24016;52.102;11.584;2023-11-19T05:33:35;6.50;99.90
38209;DHT22;24016;52.102;11.584;2023-11-19T05:36:01;6.50;99.90
38209;DHT22;24016;52.102;11.584;2023-11-19T05:38:28;6.50;99.90
38209;DHT22;24016;52.102;11.584;2023-11-19T05:40:54;6.60;99.90
38209;DHT22;24016;52.102;11.584;2023-11-19T05:43:20;6.60;99.90
38209;DHT22;24016;52.102;11.584;2023-11-19T05:45:46;6.70;99.90
38209;DHT22;24016;52.102;11.584;2023-11-19T05:48:12;6.80;99.90
38209;DHT22;24016;52.102;11.584;2023-11-19T05:50:38;6.80;99.90
38209;DHT22;24016;52.102;11.584;2023-11-19T05:53:04;6.80;99.90
38209;DHT22;24016;52.102;11.584;2023-11-19T05:55:36;6.80;99.90
38209;DHT22;24016;52.102;11.584;2023-11-19T05:58:03;6.90;99.90
38209;DHT22;24016;52.102;11.584;2023-11-19T06:00:29;6.90;99.90
38209;DHT22;24016;52.102;11.584;2023-11-19T06:02:56;7.00;99.90
38209;DHT22;24016;52.102;11.584;2023-11-19T06:05:21;6.90;99.90
38209;DHT22;24016;52.102;11.584;2023-11-19T06:07:47;6.90;99.90
38209;DHT22;24016;52.102;11.584;2023-11-19T06:10:13;6.90;99.90
38209;DHT22;24016;52.102;11.584;2023-11-19T06:12:41;6.90;99.90
38209;DHT22;24016;52.102;11.584;2023-11-19T06:15:08;7.00;99.90
38209;DHT22;24016;52.102;11.584;2023-11-19T06:17:34;7.00;99.90
38209;DHT22;24016;52.102;11.584;2023-11-19T06:19:59;7.00;99.90
38209;DHT22;24016;52.102;11.584;2023-11-19T06:22:25;7.10;99.90
38209;DHT22;24016;52.102;11.584;2023-11-19T06:24:51;7.10;99.90
38209;DHT22;24016;52.102;11.584;2023-11-19T06:27:16;7.10;99.90
38209;DHT22;24016;52.102;11.584;2023-11-19T06:29:42;7.00;99.90
38209;DHT22;24016;52.102;11.584;2023-11-19T06:32:08;7.00;99.90
38209;DHT22;24016;52.102;11.584;2023-11-19T06:34:34;7.00;99.90
38209;DHT22;24016;52.102;11.584;2023-11-19T06:36:59;7.00;99.90
38209;DHT22;24016;52.102;11.584;2023-11-19T06:39:25;6.90;99.90
38209;DHT22;24016;52.102;11.584;2023-11-19T06:41:51;6.90;99.90
38209;DHT22;24016;52.102;11.584;2023-11-19T06:44:17;6.80;99.90
38209;DHT22;24016;52.102;11.584;2023-11-19T06:46:43;6.70;99.90
38209;DHT22;24016;52.102;11.584;2023-11-19T06:49:08;6.70;99.90
38209;DHT22;24016;52.102;11.584;2023-11-19T06:51:34;6.60;99.90
38209;DHT22;24016;52.102;11.584;2023-11-19T06:54:00;6.50;99.90
38209;DHT22;24016;52.102;11.584;2023-11-19T06:56:26;6.50;99.90
38209;DHT22;24016;52.102;11.584;2023-11-19T06:58:52;6.50;99.90
38209;DHT22;24016;52.102;11.584;2023-11-19T07:01:18;6.60;99.90
38209;DHT22;24016;52.102;11.584;2023-11-19T07:03:45;6.60;99.90
38209;DHT22;24016;52.102;11.584;2023-11-19T07:06:11;6.60;99.90
38209;DHT22;24016;52.102;11.584;2023-11-19T07:08:41;6.70;99.90
38209;DHT22;24016;52.102;11.584;2023-11-19T07:11:07;6.80;99.90
38209;DHT22;24016;52.102;11.584;2023-11-19T07:13:35;6.80;99.90
38209;DHT22;24016;52.102;11.584;2023-11-19T07:16:01;6.90;99.90
38209;DHT22;24016;52.102;11.584;2023-11-19T07:18:26;6.90;99.90
38209;DHT22;24016;52.102;11.584;2023-11-19T07:20:52;7.00;99.90
38209;DHT22;24016;52.102;11.584;2023-11-19T07:23:18;7.10;99.90
38209;DHT22;24016;52.102;11.584;2023-11-19T07:25:44;7.10;99.90
38209;DHT22;24016;52.102;11.584;2023-11-19T07:28:15;7.10;99.90
38209;DHT22;24016;52.102;11.584;2023-11-19T07:30:42;7.20;99.90
38209;DHT22;24016;52.102;11.584;2023-11-19T07:33:07;7.30;99.90
38209;DHT22;24016;52.102;11.584;2023-11-19T07:35:33;7.30;99.90
38209;DHT22;24016;52.102;11.584;2023-11-19T07:37:59;7.30;99.90
38209;DHT22;24016;52.102;11.584;2023-11-19T07:40:25;7.30;99.90
38209;DHT22;24016;52.102;11.584;2023-11-19T07:42:50;7.40;99.90
38209;DHT22;24016;52.102;11.584;2023-11-19T07:45:17;7.60;99.90
38209;DHT22;24016;52.102;11.584;2023-11-19T07:47:43;7.60;99.90
38209;DHT22;24016;52.102;11.584;2023-11-19T07:50:10;7.60;99.90
38209;DHT22;24016;52.102;11.584;2023-11-19T07:52:36;7.60;99.90
38209;DHT22;24016;52.102;11.584;2023-11-19T07:55:02;7.70;99.90
38209;DHT22;24016;52.102;11.584;2023-11-19T07:57:28;7.90;99.90
38209;DHT22;24016;52.102;11.584;2023-11-19T07:59:56;8.00;99.90
38209;DHT22;24016;52.102;11.584;2023-11-19T08:02:22;8.20;99.90
38209;DHT22;24016;52.102;11.584;2023-11-19T08:04:49;8.40;99.90
38209;DHT22;24016;52.102;11.584;2023-11-19T08:07:17;8.50;99.90
38209;DHT22;24016;52.102;11.584;2023-11-19T08:09:43;8.70;99.90
38209;DHT22;24016;52.102;11.584;2023-11-19T08:12:08;8.70;99.90
38209;DHT22;24016;52.102;11.584;2023-11-19T08:14:35;8.80;99.90
38209;DHT22;24016;52.102;11.584;2023-11-19T08:17:00;8.90;99.90
38209;DHT22;24016;52.102;11.584;2023-11-19T08:19:26;9.00;99.90
38209;DHT22;24016;52.102;11.584;2023-11-19T08:21:52;9.00;99.90
38209;DHT22;24016;52.102;11.584;2023-11-19T08:24:17;9.10;99.90
38209;DHT22;24016;52.102;11.584;2023-11-19T08:26:43;9.20;99.90
38209;DHT22;24016;52.102;11.584;2023-11-19T08:29:08;9.30;99.90
38209;DHT22;24016;52.102;11.584;2023-11-19T08:31:34;9.40;99.90
38209;DHT22;24016;52.102;11.584;2023-11-19T08:34:00;9.60;99.90
38209;DHT22;24016;52.102;11.584;2023-11-19T08:36:26;9.70;99.90
38209;DHT22;24016;52.102;11.584;2023-11-19T08:38:53;9.80;99.90
38209;DHT22;24016;52.102;11.584;2023-11-19T08:41:19;9.90;99.90
38209;DHT22;24016;52.102;11.584;2023-11-19T08:43:45;10.00;99.90
38209;DHT22;24016;52.102;11.584;2023-11-19T08:46:11;10.20;99.90
38209;DHT22;24016;52.102;11.584;2023-11-19T08:48:37;10.30;99.90
38209;DHT22;24016;52.102;11.584;2023-11-19T08:51:03;10.40;99.90
38209;DHT22;24016;52.102;11.584;2023-11-19T08:53:30;10.50;99.90
38209;DHT22;24016;52.102;11.584;2023-11-19T08:55:55;10.60;99.90
38209;DHT22;24016;52.102;11.584;2023-11-19T08:58:21;10.80;99.90
38209;DHT22;24016;52.102;11.584;2023-11-19T09:00:47;10.90;99.90
38209;DHT22;24016;52.102;11.584;2023-11-19T09:03:12;11.10;99.90
38209;DHT22;24016;52.102;11.584;2023-11-19T09:05:38;11.20;99.90
38209;DHT22;24016;52.102;11.584;2023-11-19T09:08:04;11.20;99.90
38209;DHT22;24016;52.102;11.584;2023-11-19T09:10:30;11.10;99.90
38209;DHT22;24016;52.102;11.584;2023-11-19T09:12:55;11.00;99.90
38209;DHT22;24016;52.102;11.584;2023-11-19T09:15:21;11.00;99.90
38209;DHT22;24016;52.102;11.584;2023-11-19T09:17:46;11.00;99.90
38209;DHT22;24016;52.102;11.584;2023-11-19T09:20:12;11.10;99.90
38209;DHT22;24016;52.102;11.584;2023-11-19T09:22:43;11.20;99.90
38209;DHT22;24016;52.102;11.584;2023-11-19T09:25:09;11.40;99.90
38209;DHT22;24016;52.102;11.584;2023-11-19T09:27:34;11.50;99.90
38209;DHT22;24016;52.102;11.584;2023-11-19T09:30:00;11.70;99.90
38209;DHT22;24016;52.102;11.584;2023-11-19T09:32:26;11.80;99.90
38209;DHT22;24016;52.102;11.584;2023-11-19T09:34:51;12.00;99.90
38209;DHT22;24016;52.102;11.584;2023-11-19T09:37:17;12.20;99.90
38209;DHT22;24016;52.102;11.584;2023-11-19T09:39:42;12.40;99.90
38209;DHT22;24016;52.102;11.584;2023-11-19T09:42:12;12.70;99.90
38209;DHT22;24016;52.102;11.584;2023-11-19T09:44:38;12.90;99.90
38209;DHT22;24016;52.102;11.584;2023-11-19T09:47:08;13.20;99.90
38209;DHT22;24016;52.102;11.584;2023-11-19T09:49:35;13.10;99.90
38209;DHT22;24016;52.102;11.584;2023-11-19T09:52:02;13.00;99.90
38209;DHT22;24016;52.102;11.584;2023-11-19T09:54:28;12.80;99.90
38209;DHT22;24016;52.102;11.584;2023-11-19T09:56:56;12.60;99.90
38209;DHT22;24016;52.102;11.584;2023-11-19T09:59:26;12.40;99.90
38209;DHT22;24016;52.102;11.584;2023-11-19T10:01:51;12.30;99.90
38209;DHT22;24016;52.102;11.584;2023-11-19T10:04:18;12.30;99.90
38209;DHT22;24016;52.102;11.584;2023-11-19T10:06:44;12.20;99.90
38209;DHT22;24016;52.102;11.584;2023-11-19T10:09:12;12.20;99.90
38209;DHT22;24016;52.102;11.584;2023-11-19T10:11:38;12.20;99.90
38209;DHT22;24016;52.102;11.584;2023-11-19T10:14:04;12.20;99.90
38209;DHT22;24016;52.102;11.584;2023-11-19T10:16:30;12.50;99.90
38209;DHT22;24016;52.102;11.584;2023-11-19T10:18:59;13.00;99.90
38209;DHT22;24016;52.102;11.584;2023-11-19T10:21:24;13.30;99.90
38209;DHT22;24016;52.102;11.584;2023-11-19T10:23:51;13.40;99.90
38209;DHT22;24016;52.102;11.584;2023-11-19T10:26:18;13.20;99.90
38209;DHT22;24016;52.102;11.584;2023-11-19T10:28:46;13.00;99.90
38209;DHT22;24016;52.102;11.584;2023-11-19T10:31:13;12.80;99.90
38209;DHT22;24016;52.102;11.584;2023-11-19T10:33:39;12.60;99.90
38209;DHT22;24016;52.102;11.584;2023-11-19T10:36:05;12.50;99.90
38209;DHT22;24016;52.102;11.584;2023-11-19T10:38:31;12.60;99.90
38209;DHT22;24016;52.102;11.584;2023-11-19T10:40:56;12.70;99.90
38209;DHT22;24016;52.102;11.584;2023-11-19T10:43:23;12.60;99.90
38209;DHT22;24016;52.102;11.584;2023-11-19T10:45:49;12.60;99.90
38209;DHT22;24016;52.102;11.584;2023-11-19T10:48:15;12.50;99.90
38209;DHT22;24016;52.102;11.584;2023-11-19T10:50:42;12.40;99.90
38209;DHT22;24016;52.102;11.584;2023-11-19T10:53:10;12.40;99.90
38209;DHT22;24016;52.102;11.584;2023-11-19T10:55:38;12.90;99.90
38209;DHT22;24016;52.102;11.584;2023-11-19T10:58:06;13.70;99.90
38209;DHT22;24016;52.102;11.584;2023-11-19T11:00:52;13.90;99.90
38209;DHT22;24016;52.102;11.584;2023-11-19T11:03:20;13.80;99.90
38209;DHT22;24016;52.102;11.584;2023-11-19T11:05:50;13.70;99.90
38209;DHT22;24016;52.102;11.584;2023-11-19T11:08:17;13.90;99.90
38209;DHT22;24016;52.102;11.584;2023-11-19T11:10:45;14.00;99.90
38209;DHT22;24016;52.102;11.584;2023-11-19T11:13:11;14.10;99.90
38209;DHT22;24016;52.102;11.584;2023-11-19T11:15:38;14.20;99.90
38209;DHT22;24016;52.102;11.584;2023-11-19T11:18:08;14.40;99.90
38209;DHT22;24016;52.102;11.584;2023-11-19T11:20:34;14.40;99.90
38209;DHT22;24016;52.102;11.584;2023-11-19T11:23:37;14.60;99.90
38209;DHT22;24016;52.102;11.584;2023-11-19T11:26:32;14.90;99.90
38209;DHT22;24016;52.102;11.584;2023-11-19T11:29:20;15.10;99.90
38209;DHT22;24016;52.102;11.584;2023-11-19T11:35:09;14.90;99.90
38209;DHT22;24016;52.102;11.584;2023-11-19T11:37:47;14.40;99.90
38209;DHT22;24016;52.102;11.584;2023-11-19T11:40:17;14.00;99.90
38209;DHT22;24016;52.102;11.584;2023-11-19T11:42:44;14.10;99.90
38209;DHT22;24016;52.102;11.584;2023-11-19T11:45:11;13.90;99.90
38209;DHT22;24016;52.102;11.584;2023-11-19T11:50:19;13.70;99.90
38209;DHT22;24016;52.102;11.584;2023-11-19T11:55:36;13.80;99.90
38209;DHT22;24016;52.102;11.584;2023-11-19T11:58:03;14.00;99.90
38209;DHT22;24016;52.102;11.584;2023-11-19T12:00:37;14.10;99.90
38209;DHT22;24016;52.102;11.584;2023-11-19T12:03:05;14.00;99.90
38209;DHT22;24016;52.102;11.584;2023-11-19T12:05:31;13.70;99.90
38209;DHT22;24016;52.102;11.584;2023-11-19T12:08:06;13.70;99.90
38209;DHT22;24016;52.102;11.584;2023-11-19T12:10:48;13.80;99.90
38209;DHT22;24016;52.102;11.584;2023-11-19T12:13:14;14.00;99.90
38209;DHT22;24016;52.102;11.584;2023-11-19T12:18:31;13.90;99.90
38209;DHT22;24016;52.102;11.584;2023-11-19T12:21:00;13.80;99.90
38209;DHT22;24016;52.102;11.584;2023-11-19T12:23:29;13.60;99.90
38209;DHT22;24016;52.102;11.584;2023-11-19T12:25:55;13.40;99.90
38209;DHT22;24016;52.102;11.584;2023-11-19T12:28:21;13.20;99.90
38209;DHT22;24016;52.102;11.584;2023-11-19T12:30:48;13.30;99.90
38209;DHT22;24016;52.102;11.584;2023-11-19T12:33:14;13.30;99.90
38209;DHT22;24016;52.102;11.584;2023-11-19T12:35:41;13.40;99.90
38209;DHT22;24016;52.102;11.584;2023-11-19T12:38:07;13.50;99.90
38209;DHT22;24016;52.102;11.584;2023-11-19T12:40:33;13.40;99.90
38209;DHT22;24016;52.102;11.584;2023-11-19T12:42:59;13.40;99.90
38209;DHT22;24016;52.102;11.584;2023-11-19T12:45:35;13.40;99.90
38209;DHT22;24016;52.102;11.584;2023-11-19T12:48:05;13.20;99.90
38209;DHT22;24016;52.102;11.584;2023-11-19T12:50:50;13.10;99.90
38209;DHT22;24016;52.102;11.584;2023-11-19T12:53:22;13.00;99.90
38209;DHT22;24016;52.102;11.584;2023-11-19T12:55:48;12.90;99.90
38209;DHT22;24016;52.102;11.584;2023-11-19T12:58:34;12.90;99.90
38209;DHT22;24016;52.102;11.584;2023-11-19T13:01:04;12.80;99.90
38209;DHT22;24016;52.102;11.584;2023-11-19T13:03:35;12.60;99.90
38209;DHT22;24016;52.102;11.584;2023-11-19T13:06:11;12.50;99.90
38209;DHT22;24016;52.102;11.584;2023-11-19T13:08:37;12.40;99.90
38209;DHT22;24016;52.102;11.584;2023-11-19T13:11:04;12.30;99.90
38209;DHT22;24016;52.102;11.584;2023-11-19T13:13:32;12.30;99.90
38209;DHT22;24016;52.102;11.584;2023-11-19T13:16:05;12.20;99.90
38209;DHT22;24016;52.102;11.584;2023-11-19T13:18:34;12.30;99.90
38209;DHT22;24016;52.102;11.584;2023-11-19T13:21:00;12.30;99.90
38209;DHT22;24016;52.102;11.584;2023-11-19T13:23:26;12.30;99.90
38209;DHT22;24016;52.102;11.584;2023-11-19T13:25:52;12.20;99.90
38209;DHT22;24016;52.102;11.584;2023-11-19T13:28:18;12.20;99.90
38209;DHT22;24016;52.102;11.584;2023-11-19T13:30:43;12.10;99.90
38209;DHT22;24016;52.102;11.584;2023-11-19T13:33:09;12.10;99.90
38209;DHT22;24016;52.102;11.584;2023-11-19T13:35:38;12.10;99.90
38209;DHT22;24016;52.102;11.584;2023-11-19T13:38:07;12.20;99.90
38209;DHT22;24016;52.102;11.584;2023-11-19T13:40:34;12.30;99.90
38209;DHT22;24016;52.102;11.584;2023-11-19T13:43:00;12.30;99.90
38209;DHT22;24016;52.102;11.584;2023-11-19T13:45:25;12.30;99.90
38209;DHT22;24016;52.102;11.584;2023-11-19T13:47:51;12.30;99.90
38209;DHT22;24016;52.102;11.584;2023-11-19T13:50:17;12.30;99.90
38209;DHT22;24016;52.102;11.584;2023-11-19T13:52:44;12.20;99.90
38209;DHT22;24016;52.102;11.584;2023-11-19T13:55:12;12.10;99.90
38209;DHT22;24016;52.102;11.584;2023-11-19T13:57:41;12.00;99.90
38209;DHT22;24016;52.102;11.584;2023-11-19T14:00:11;11.90;99.90
38209;DHT22;24016;52.102;11.584;2023-11-19T14:02:41;11.80;99.90
38209;DHT22;24016;52.102;11.584;2023-11-19T14:05:08;11.80;99.90
38209;DHT22;24016;52.102;11.584;2023-11-19T14:07:33;11.70;99.90
38209;DHT22;24016;52.102;11.584;2023-11-19T14:09:59;11.70;99.90
38209;DHT22;24016;52.102;11.584;2023-11-19T14:12:25;11.70;99.90
38209;DHT22;24016;52.102;11.584;2023-11-19T14:14:50;11.60;99.90
38209;DHT22;24016;52.102;11.584;2023-11-19T14:17:16;11.60;99.90
38209;DHT22;24016;52.102;11.584;2023-11-19T14:19:42;11.60;99.90
38209;DHT22;24016;52.102;11.584;2023-11-19T14:22:08;11.60;99.90
38209;DHT22;24016;52.102;11.584;2023-11-19T14:24:34;11.50;99.90
38209;DHT22;24016;52.102;11.584;2023-11-19T14:27:00;11.50;99.90
38209;DHT22;24016;52.102;11.584;2023-11-19T14:29:27;11.50;99.90
38209;DHT22;24016;52.102;11.584;2023-11-19T14:31:55;11.50;99.90
38209;DHT22;24016;52.102;11.584;2023-11-19T14:34:21;11.50;99.90
38209;DHT22;24016;52.102;11.584;2023-11-19T14:36:46;11.50;99.90
38209;DHT22;24016;52.102;11.584;2023-11-19T14:39:13;11.50;99.90
38209;DHT22;24016;52.102;11.584;2023-11-19T14:41:38;11.40;99.90
38209;DHT22;24016;52.102;11.584;2023-11-19T14:44:05;11.40;99.90
38209;DHT22;24016;52.102;11.584;2023-11-19T14:46:31;11.40;99.90
38209;DHT22;24016;52.102;11.584;2023-11-19T14:48:56;11.40;99.90
38209;DHT22;24016;52.102;11.584;2023-11-19T14:51:22;11.40;99.90
38209;DHT22;24016;52.102;11.584;2023-11-19T14:53:48;11.40;99.90
38209;DHT22;24016;52.102;11.584;2023-11-19T14:56:13;11.40;99.90
38209;DHT22;24016;52.102;11.584;2023-11-19T14:58:39;11.40;99.90
38209;DHT22;24016;52.102;11.584;2023-11-19T15:01:05;11.30;99.90
38209;DHT22;24016;52.102;11.584;2023-11-19T15:03:32;11.30;99.90
38209;DHT22;24016;52.102;11.584;2023-11-19T15:05:58;11.20;99.90
38209;DHT22;24016;52.102;11.584;2023-11-19T15:08:24;11.10;99.90
38209;DHT22;24016;52.102;11.584;2023-11-19T15:10:49;11.20;99.90
38209;DHT22;24016;52.102;11.584;2023-11-19T15:13:15;11.10;99.90
38209;DHT22;24016;52.102;11.584;2023-11-19T15:15:41;11.10;99.90
38209;DHT22;24016;52.102;11.584;2023-11-19T15:18:07;11.10;99.90
38209;DHT22;24016;52.102;11.584;2023-11-19T15:20:32;11.00;99.90
38209;DHT22;24016;52.102;11.584;2023-11-19T15:22:58;11.00;99.90
38209;DHT22;24016;52.102;11.584;2023-11-19T15:25:24;10.90;99.90
38209;DHT22;24016;52.102;11.584;2023-11-19T15:27:50;10.90;99.90
38209;DHT22;24016;52.102;11.584;2023-11-19T15:30:16;10.90;99.90
38209;DHT22;24016;52.102;11.584;2023-11-19T15:32:44;10.90;99.90
38209;DHT22;24016;52.102;11.584;2023-11-19T15:35:10;10.90;99.90